Time;durP1;ratioP1;P1;durP2;ratioP2;P2;SDS_P1;SDS_P2;PMS_P1;PMS_P2;Temp;Humidity;BMP_temperature;BMP_pressure;BME280_temperature;BME280_humidity;BME280_pressure;Samples;Min_cycle;Max_cycle;Signal;HPM_P1;HPM_P2
2021/05/15 00:00:52;;;;;;;32.05;12.18;;;8.80;99.90;;;7.35;100.00;100293.84;4904731;28;20089;-79
2021/05/15 00:03:14;;;;;;;40.65;12.00;;;8.80;99.90;;;7.36;100.00;100290.28;4891737;28;20085;-79
2021/05/15 00:05:38;;;;;;;37.40;13.40;;;8.80;99.90;;;7.35;100.00;100299.06;4903541;28;20573;-77
2021/05/15 00:08:03;;;;;;;32.55;12.18;;;;;;;7.32;100.00;100297.44;4906662;28;20081;-79
2021/05/15 00:10:27;;;;;;;35.03;12.40;;;8.70;99.90;;;7.32;100.00;100300.06;4900255;28;20074;-80
2021/05/15 00:12:50;;;;;;;33.65;11.63;;;8.70;99.90;;;7.29;100.00;100300.16;4902970;28;20093;-79
2021/05/15 00:15:14;;;;;;;43.58;12.90;;;8.70;99.90;;;7.28;100.00;100297.59;4894623;28;20093;-77
2021/05/15 00:17:38;;;;;;;35.08;12.15;;;8.70;99.90;;;7.29;100.00;100294.91;4892206;28;20083;-80
2021/05/15 00:20:01;;;;;;;27.20;11.93;;;8.70;99.90;;;7.28;100.00;100302.81;4885985;28;20123;-79
2021/05/15 00:22:25;;;;;;;36.20;11.93;;;8.70;99.90;;;7.26;100.00;100294.22;4889758;28;20125;-80
2021/05/15 00:24:48;;;;;;;32.25;11.38;;;8.70;99.90;;;7.21;100.00;100296.97;4901254;28;20453;-79
2021/05/15 00:27:11;;;;;;;27.05;12.00;;;8.60;99.90;;;7.20;100.00;100305.75;4890041;28;20086;-79
2021/05/15 00:29:34;;;;;;;35.95;11.88;;;8.70;99.90;;;7.18;100.00;100302.34;4890297;28;20086;-78
2021/05/15 00:31:57;;;;;;;32.88;11.57;;;8.60;99.90;;;7.16;100.00;100299.78;4892554;28;20083;-80
2021/05/15 00:34:20;;;;;;;34.38;11.43;;;9.70;99.90;;;7.16;100.00;100309.41;4891519;28;20086;-77
2021/05/15 00:36:43;;;;;;;38.60;11.88;;;8.60;99.90;;;7.13;100.00;100320.03;4899329;28;22373;-79
2021/05/15 00:39:07;;;;;;;25.48;10.13;;;8.60;99.90;;;7.10;100.00;100314.88;4889629;28;20082;-78
2021/05/15 00:41:30;;;;;;;29.40;11.15;;;8.50;99.90;;;7.10;100.00;100313.09;4892877;28;20085;-79
2021/05/15 00:44:10;;;;;;;32.75;11.35;;;8.60;99.90;;;7.09;100.00;100316.66;4885143;28;20089;-79
2021/05/15 00:46:33;;;;;;;32.95;11.27;;;8.50;99.90;;;7.08;100.00;100314.94;4885386;28;20077;-79
2021/05/15 00:48:56;;;;;;;34.55;11.52;;;8.00;99.90;;;7.10;100.00;100320.13;4886002;28;20110;-79
2021/05/15 00:51:19;;;;;;;28.83;10.50;;;8.50;99.90;;;7.07;100.00;100313.25;4889889;28;20547;-79
2021/05/15 00:53:43;;;;;;;29.13;10.20;;;8.50;99.90;;;7.07;100.00;100315.00;4890330;28;20084;-79
2021/05/15 00:56:05;;;;;;;32.60;11.20;;;8.50;99.90;;;7.05;100.00;100325.53;4884551;28;20089;-79
2021/05/15 00:58:28;;;;;;;32.75;11.73;;;8.50;99.90;;;7.05;100.00;100322.91;4893754;28;20069;-78
2021/05/15 01:00:52;;;;;;;34.53;11.35;;;8.50;99.90;;;7.06;100.00;100318.53;4890250;28;20084;-79
2021/05/15 01:03:15;;;;;;;24.98;10.65;;;;;;;7.05;100.00;100320.28;4892174;28;20077;-80
2021/05/15 01:05:38;;;;;;;32.58;11.80;;;8.50;99.90;;;7.04;100.00;100321.22;4890693;28;20086;-78
2021/05/15 01:08:01;;;;;;;36.25;11.38;;;8.50;99.90;;;7.07;100.00;100320.25;4885209;28;20089;-79
2021/05/15 01:10:24;;;;;;;28.92;11.10;;;8.50;99.90;;;7.05;100.00;100315.06;4889780;28;20477;-79
2021/05/15 01:12:51;;;;;;;31.67;11.40;;;8.50;99.90;;;7.03;100.00;100314.25;4888744;28;20456;-79
2021/05/15 01:15:16;;;;;;;28.23;10.98;;;8.50;99.90;;;7.03;100.00;100313.44;4899515;28;20475;-78
2021/05/15 01:17:47;;;;;;;34.40;11.98;;;;;;;7.02;100.00;100315.19;4891253;28;20092;-80
2021/05/15 01:20:12;;;;;;;31.02;11.02;;;8.50;99.90;;;7.03;100.00;100314.25;4885770;28;20082;-80
2021/05/15 01:22:39;;;;;;;27.70;10.82;;;;;;;7.01;100.00;100313.47;4890163;28;20081;-78
2021/05/15 01:25:02;;;;;;;32.95;12.07;;;8.50;99.90;;;7.01;100.00;100321.31;4890990;28;20116;-79
2021/05/15 01:27:25;;;;;;;31.08;11.40;;;8.50;99.90;;;6.99;100.00;100313.53;4897318;28;20163;-79
2021/05/15 01:29:49;;;;;;;28.08;10.85;;;8.50;99.90;;;7.01;100.00;100320.47;4906074;28;20159;-78
2021/05/15 01:32:12;;;;;;;34.87;11.70;;;8.40;99.90;;;6.99;100.00;100307.44;4902911;28;20093;-80
2021/05/15 01:34:35;;;;;;;35.15;11.75;;;8.40;99.90;;;6.98;100.00;100314.44;4909681;28;20107;-80
2021/05/15 01:36:58;;;;;;;33.40;10.98;;;8.50;99.90;;;6.99;100.00;100317.91;4894566;28;20093;-78
2021/05/15 01:39:22;;;;;;;33.58;11.82;;;8.40;99.90;;;6.99;100.00;100317.91;4890887;28;20152;-79
2021/05/15 01:41:45;;;;;;;34.60;11.93;;;8.40;99.90;;;6.97;100.00;100323.19;4901471;28;20096;-78
2021/05/15 01:44:08;;;;;;;38.58;11.50;;;8.40;99.90;;;6.99;100.00;100323.16;4889180;28;20486;-78
2021/05/15 01:46:32;;;;;;;33.85;12.50;;;8.40;99.90;;;6.96;100.00;100325.91;4886113;28;20079;-80
2021/05/15 01:48:54;;;;;;;32.60;12.32;;;8.50;99.90;;;6.98;100.00;100322.31;4891946;28;20096;-79
2021/05/15 01:51:17;;;;;;;33.20;12.00;;;8.40;99.90;;;7.00;100.00;100324.88;4892727;28;20082;-79
2021/05/15 01:53:43;;;;;;;39.03;12.15;;;8.50;99.90;;;7.01;100.00;100320.47;4905088;28;20471;-78
2021/05/15 01:56:09;;;;;;;34.25;13.10;;;8.40;99.90;;;7.00;100.00;100327.50;4901293;28;20084;-78
2021/05/15 01:58:32;;;;;;;33.17;12.57;;;8.40;99.90;;;6.97;100.00;100324.97;4898724;28;20092;-79
2021/05/15 02:00:56;;;;;;;35.92;12.25;;;8.40;99.90;;;6.96;100.00;100323.28;4889493;28;20105;-79
2021/05/15 02:03:21;;;;;;;33.35;13.00;;;8.40;99.90;;;6.93;100.00;100319.03;4887818;28;20097;-78
2021/05/15 02:05:43;;;;;;;46.83;13.80;;;8.40;99.90;;;6.95;100.00;100322.44;4903840;28;20074;-78
2021/05/15 02:08:08;;;;;;;44.42;13.65;;;8.40;99.90;;;6.92;100.00;100316.44;4902176;28;20126;-79
2021/05/15 02:10:31;;;;;;;42.95;12.55;;;8.40;99.90;;;6.91;100.00;100320.84;4905289;28;20080;-79
2021/05/15 02:12:55;;;;;;;29.70;11.90;;;;;;;6.92;100.00;100322.53;4896725;28;20082;-78
2021/05/15 02:15:18;;;;;;;38.17;13.40;;;8.40;99.90;;;6.92;100.00;100312.06;4887799;28;20077;-77
2021/05/15 02:17:41;;;;;;;34.20;14.27;;;8.40;99.90;;;6.94;100.00;100318.09;4887857;28;20097;-79
2021/05/15 02:20:04;;;;;;;32.92;12.45;;;8.40;99.90;;;6.91;100.00;100320.84;4885832;28;20087;-78
2021/05/15 02:22:27;;;;;;;43.28;13.63;;;8.40;99.90;;;6.90;100.00;100316.50;4887906;28;20448;-77
2021/05/15 02:24:50;;;;;;;37.80;12.93;;;8.40;99.90;;;6.92;100.00;100309.44;4898751;28;20085;-78
2021/05/15 02:27:13;;;;;;;41.20;14.32;;;8.40;99.90;;;6.88;100.00;100302.63;4892259;28;20128;-79
2021/05/15 02:29:37;;;;;;;35.10;13.20;;;8.40;99.90;;;6.88;100.00;100312.25;4893924;28;20661;-78
2021/05/15 02:31:59;;;;;;;37.63;13.55;;;8.30;99.90;;;6.86;100.00;100312.28;4886736;28;20733;-78
2021/05/15 02:34:22;;;;;;;43.20;13.35;;;8.40;99.90;;;6.86;100.00;100303.59;4886027;28;20495;-78
2021/05/15 02:36:45;;;;;;;38.58;13.02;;;8.30;99.90;;;6.84;100.00;100305.41;4890774;28;20092;-79
2021/05/15 02:39:08;;;;;;;43.72;12.75;;;8.30;99.90;;;6.84;100.00;100302.78;4886901;28;20123;-79
2021/05/15 02:41:31;;;;;;;38.08;13.38;;;8.30;99.90;;;6.87;100.00;100310.50;4884161;28;20094;-79
2021/05/15 02:43:53;;;;;;;35.25;13.10;;;8.30;99.90;;;6.84;100.00;100308.88;4886356;28;20108;-79
2021/05/15 02:46:17;;;;;;;34.80;13.07;;;8.30;99.90;;;6.84;100.00;100308.03;4884685;28;20089;-78
2021/05/15 02:48:40;;;;;;;41.97;13.70;;;8.30;99.90;;;6.87;100.00;100307.91;4887424;28;20100;-78
2021/05/15 02:51:03;;;;;;;38.00;12.45;;;8.30;99.90;;;6.84;100.00;100305.41;4889945;28;20493;-80
2021/05/15 02:53:26;;;;;;;41.97;13.65;;;8.30;99.90;;;6.83;100.00;100311.56;4885445;28;20085;-78
2021/05/15 02:55:49;;;;;;;37.25;13.32;;;8.30;99.90;;;6.81;100.00;100308.16;4885287;28;20524;-79
2021/05/15 02:58:14;;;;;;;35.38;12.55;;;8.30;99.90;;;6.81;100.00;100308.16;4887551;28;20552;-78
2021/05/15 03:00:38;;;;;;;31.95;12.70;;;8.20;99.90;;;6.74;100.00;100300.53;4889118;28;20066;-79
2021/05/15 03:03:02;;;;;;;34.80;12.15;;;;;;;6.74;100.00;100307.53;4891069;28;20081;-78
2021/05/15 03:05:28;;;;;;;27.13;11.20;;;8.20;99.90;;;6.72;100.00;100294.50;4888977;28;20484;-78
2021/05/15 03:07:52;;;;;;;32.05;12.30;;;8.20;99.90;;;6.70;100.00;100295.47;4885478;28;20093;-79
2021/05/15 03:10:17;;;;;;;42.45;13.52;;;8.20;99.90;;;6.71;100.00;100302.41;4902681;28;20113;-79
2021/05/15 03:12:41;;;;;;;37.15;12.85;;;8.10;99.90;;;6.70;100.00;100304.16;4886756;28;20093;-79
2021/05/15 03:15:10;;;;;;;38.05;12.48;;;8.20;99.90;;;6.69;100.00;100305.06;4882115;28;20083;-79
2021/05/15 03:17:33;;;;;;;39.60;13.30;;;8.20;99.90;;;6.70;100.00;100303.31;4905554;28;20511;-79
2021/05/15 03:19:57;;;;;;;29.38;12.18;;;;;;;6.70;100.00;100306.78;4906686;28;21768;-79
2021/05/15 03:22:22;;;;;;;37.38;13.20;;;8.20;99.90;;;6.69;100.00;100310.31;4911307;28;20081;-79
2021/05/15 03:24:45;;;;;;;39.97;13.30;;;8.20;99.90;;;6.70;100.00;100305.94;4891715;28;20090;-78
2021/05/15 03:27:08;;;;;;;32.10;12.52;;;8.20;99.90;;;6.73;100.00;100306.66;4892276;28;20086;-79
2021/05/15 03:29:30;;;;;;;39.95;12.57;;;8.20;99.90;;;6.69;100.00;100299.00;4886876;28;20137;-79
2021/05/15 03:31:54;;;;;;;39.05;12.77;;;8.20;99.90;;;6.69;100.00;100307.69;4891025;28;20079;-79
2021/05/15 03:34:17;;;;;;;34.22;12.10;;;8.20;99.90;;;6.67;100.00;100298.19;4889888;28;20148;-77
2021/05/15 03:36:41;;;;;;;33.58;13.43;;;8.20;99.90;;;6.67;100.00;100309.50;4892379;28;20085;-79
2021/05/15 03:39:04;;;;;;;41.42;13.23;;;8.10;99.90;;;6.68;100.00;100307.75;4898773;28;20077;-78
2021/05/15 03:41:27;;;;;;;41.22;14.00;;;8.10;99.90;;;6.65;100.00;100300.88;4889243;28;20485;-80
2021/05/15 03:43:50;;;;;;;34.58;12.75;;;8.10;99.90;;;6.64;100.00;100303.56;4886393;28;20126;-78
2021/05/15 03:46:12;;;;;;;38.47;13.65;;;8.10;99.90;;;6.63;100.00;100297.47;4890059;28;20082;-79
2021/05/15 03:48:35;;;;;;;39.53;14.05;;;8.10;99.90;;;6.64;100.00;100307.00;4910100;28;20497;-79
2021/05/15 03:50:58;;;;;;;44.63;14.40;;;8.10;99.90;;;6.65;100.00;100305.25;4903630;28;20090;-79
2021/05/15 03:53:22;;;;;;;39.05;13.43;;;8.10;99.90;;;6.67;100.00;100308.66;4887317;28;20077;-78
2021/05/15 03:55:45;;;;;;;44.92;14.57;;;8.10;99.90;;;6.67;100.00;100299.03;4889856;28;20077;-78
2021/05/15 03:58:08;;;;;;;40.53;12.77;;;8.10;99.90;;;6.69;100.00;100304.22;4887080;28;20083;-80
2021/05/15 04:00:31;;;;;;;34.83;12.82;;;8.20;99.90;;;6.73;100.00;100296.19;4916048;28;20078;-78
2021/05/15 04:02:54;;;;;;;35.67;14.43;;;8.20;99.90;;;6.75;100.00;100290.91;4896354;28;20087;-79
2021/05/15 04:05:17;;;;;;;39.75;14.38;;;8.20;99.90;;;6.80;100.00;100293.34;4889668;28;20463;-77
2021/05/15 04:07:40;;;;;;;35.75;13.10;;;8.30;99.90;;;6.84;100.00;100298.41;4886566;28;20077;-79
2021/05/15 04:10:04;;;;;;;46.97;14.68;;;;;;;6.90;100.00;100300.78;4888246;28;20082;-78
2021/05/15 04:12:34;;;;;;;43.55;14.77;;;8.30;99.90;;;6.91;100.00;100307.75;4889207;28;20085;-77
2021/05/15 04:15:04;;;;;;;42.78;14.80;;;8.30;99.90;;;6.90;100.00;100308.66;4888839;28;20086;-80
2021/05/15 04:17:29;;;;;;;45.60;14.50;;;8.40;99.90;;;6.91;100.00;100299.03;4887371;28;20144;-79
2021/05/15 04:19:51;;;;;;;55.00;15.27;;;8.30;99.90;;;6.94;100.00;100305.00;4887463;28;20175;-78
2021/05/15 04:22:14;;;;;;;43.00;15.68;;;8.40;99.90;;;6.97;100.00;100306.66;4899191;28;20078;-79
2021/05/15 04:24:37;;;;;;;43.38;14.05;;;8.40;99.90;;;6.98;100.00;100306.59;4897914;28;20077;-80
2021/05/15 04:27:05;;;;;;;46.10;15.75;;;8.40;99.90;;;7.01;100.00;100310.84;4901710;28;20081;-78
2021/05/15 04:29:28;;;;;;;48.08;15.73;;;8.40;99.90;;;7.01;100.00;100308.22;4899315;28;20093;-79
2021/05/15 04:31:54;;;;;;;39.45;15.70;;;;;;;7.02;100.00;100303.84;4896962;28;20570;-79
2021/05/15 04:34:17;;;;;;;;;;;8.40;99.90;;;6.97;100.00;100302.25;4891531;28;20081;-77
2021/05/15 04:36:40;;;;;;;44.47;15.25;;;8.40;99.90;;;6.97;100.00;100301.41;4893888;28;19960;-80
2021/05/15 04:39:04;;;;;;;41.03;15.30;;;8.40;99.90;;;6.97;100.00;100307.50;4890717;28;20164;-79
2021/05/15 04:41:26;;;;;;;43.60;14.82;;;8.40;99.90;;;6.99;100.00;100316.13;4889529;28;20430;-79
2021/05/15 04:43:50;;;;;;;42.13;15.57;;;;;;;6.94;100.00;100315.47;4884843;28;20113;-80
2021/05/15 04:46:13;;;;;;;38.80;15.68;;;8.40;99.90;;;6.91;100.00;100314.72;4891873;28;20082;-78
2021/05/15 04:48:38;;;;;;;48.25;15.18;;;8.30;99.90;;;6.90;100.00;100313.03;4893547;28;20084;-79
2021/05/15 04:51:01;;;;;;;38.35;14.27;;;8.30;99.90;;;6.88;100.00;100320.09;4889731;28;20567;-77
2021/05/15 04:53:24;;;;;;;38.05;14.52;;;8.30;99.90;;;7.03;100.00;100324.75;4886844;28;20071;-79
2021/05/15 04:55:46;;;;;;;39.35;14.88;;;8.40;99.90;;;7.14;100.00;100324.31;4884586;28;20087;-77
2021/05/15 04:58:09;;;;;;;43.70;15.63;;;8.50;99.90;;;7.26;100.00;100323.00;4887846;28;20106;-79
2021/05/15 05:00:33;;;;;;;37.92;15.00;;;8.60;99.90;;;7.39;99.84;100317.22;4893002;28;20083;-78
2021/05/15 05:02:56;;;;;;;37.88;15.13;;;8.80;99.90;;;7.55;98.90;100321.84;4896893;28;20098;-79
2021/05/15 05:05:19;;;;;;;41.63;14.40;;;8.90;99.90;;;7.64;97.61;100316.22;4902399;28;20078;-81
2021/05/15 05:07:42;;;;;;;39.22;14.20;;;8.90;99.90;;;7.68;97.67;100314.31;4897336;28;20077;-80
2021/05/15 05:10:07;;;;;;;31.45;13.15;;;8.90;99.90;;;7.61;97.21;100316.34;4888507;28;20122;-79
2021/05/15 05:12:29;;;;;;;32.55;12.75;;;8.90;99.90;;;7.71;97.89;100312.44;4889540;28;20082;-80
2021/05/15 05:14:52;;;;;;;31.15;13.60;;;9.00;99.90;;;7.79;97.30;100319.97;4887379;28;20084;-79
2021/05/15 05:17:16;;;;;;;32.80;13.70;;;9.00;99.90;;;7.77;97.42;100321.81;4887854;28;20136;-79
2021/05/15 05:19:39;;;;;;;33.45;12.98;;;9.00;99.90;;;7.83;97.19;100318.94;4893692;28;20459;-79
2021/05/15 05:22:02;;;;;;;28.67;12.70;;;9.10;99.90;;;7.94;95.50;100313.25;4921652;28;20150;-82
2021/05/15 05:24:25;;;;;;;27.42;11.43;;;9.10;99.90;;;8.04;95.88;100311.09;4890067;28;20085;-80
2021/05/15 05:26:48;;;;;;;31.90;13.38;;;9.30;99.90;;;8.10;95.82;100309.06;4888709;28;20079;-79
2021/05/15 05:29:11;;;;;;;31.42;11.82;;;9.20;99.90;;;8.18;95.19;100313.97;4891661;28;20084;-80
2021/05/15 05:31:35;;;;;;;36.85;12.98;;;9.30;99.90;;;8.15;95.66;100307.06;4884868;28;20081;-79
2021/05/15 05:33:59;;;;;;;31.63;14.07;;;;;;;8.11;94.65;100309.91;4891850;28;20096;-78
2021/05/15 05:36:22;;;;;;;32.78;12.73;;;9.20;99.90;;;8.09;95.00;100320.44;4891624;28;20104;-79
2021/05/15 05:38:44;;;;;;;25.83;12.48;;;9.20;99.90;;;8.13;94.49;100315.94;4894913;28;20094;-80
2021/05/15 05:41:07;;;;;;;29.00;12.52;;;9.20;99.90;;;8.07;94.62;100324.06;4886651;28;20085;-78
2021/05/15 05:43:30;;;;;;;26.70;13.45;;;9.10;99.90;;;7.97;94.90;100321.84;4886111;28;20130;-80
2021/05/15 05:45:53;;;;;;;29.92;13.18;;;9.00;99.90;;;7.87;94.42;100330.16;4915011;28;20542;-79
2021/05/15 05:48:18;;;;;;;27.63;12.05;;;9.10;99.90;;;7.92;95.43;100328.19;4900913;28;21765;-80
2021/05/15 05:50:42;;;;;;;30.10;13.68;;;9.10;99.90;;;7.93;95.07;100325.50;4886767;28;20093;-79
2021/05/15 05:53:05;;;;;;;30.00;13.40;;;9.20;99.90;;;8.02;94.75;100335.59;4896118;28;20088;-79
2021/05/15 05:55:27;;;;;;;36.33;13.73;;;9.20;99.90;;;8.07;94.33;100331.94;4888360;28;20113;-77
2021/05/15 05:57:50;;;;;;;30.17;11.75;;;9.30;99.90;;;8.14;94.23;100336.84;4884264;28;20516;-79
2021/05/15 06:00:15;;;;;;;27.60;12.88;;;9.40;99.90;;;8.41;95.43;100340.06;4892837;28;20082;-79
2021/05/15 06:02:39;;;;;;;27.67;13.63;;;9.60;99.90;;;8.51;94.60;100339.66;4887295;28;20479;-78
2021/05/15 06:05:03;;;;;;;31.95;14.43;;;9.50;99.90;;;8.46;93.34;100342.50;4884061;28;20424;-78
2021/05/15 06:07:27;;;;;;;27.45;13.00;;;9.50;99.90;;;8.41;93.16;100345.31;4887377;28;20087;-79
2021/05/15 06:09:49;;;;;;;31.40;13.57;;;9.50;99.90;;;8.53;93.50;100346.56;4888858;28;20078;-79
2021/05/15 06:12:13;;;;;;;31.83;13.77;;;9.60;99.90;;;8.62;93.40;100342.69;4889943;28;20449;-80
2021/05/15 06:14:37;;;;;;;28.42;14.48;;;9.80;99.90;;;8.74;92.69;100347.38;4888693;28;20084;-78
2021/05/15 06:17:00;;;;;;;31.85;14.52;;;9.90;99.90;;;8.98;93.28;100328.78;4888083;28;20444;-79
2021/05/15 06:19:22;;;;;;;32.30;14.60;;;9.90;99.90;;;8.93;90.79;100339.50;4885803;28;20091;-80
2021/05/15 06:21:45;;;;;;;30.45;14.05;;;10.00;99.90;;;9.14;90.92;100342.94;4888661;28;20094;-79
2021/05/15 06:24:10;;;;;;;35.38;15.82;;;;;;;9.12;89.87;100351.81;4898344;28;20488;-79
2021/05/15 06:26:33;;;;;;;32.13;14.75;;;;;;;9.71;88.04;100331.47;4895809;28;20098;-77
2021/05/15 06:28:56;;;;;;;28.13;14.27;;;11.20;99.90;;;11.22;82.62;100335.84;4882600;28;21843;-80
2021/05/15 06:31:18;;;;;;;29.98;13.32;;;12.20;99.90;;;12.35;78.24;100334.69;4887116;28;20099;-80
2021/05/15 06:33:41;;;;;;;26.33;13.20;;;12.20;99.90;;;12.07;77.68;100336.34;4888657;28;20408;-80
2021/05/15 06:36:05;;;;;;;24.52;13.32;;;11.90;99.90;;;11.47;79.61;100345.88;4885663;28;20049;-79
2021/05/15 06:38:28;;;;;;;28.17;13.40;;;11.60;99.90;;;11.05;80.47;100346.47;4890718;28;20480;-78
2021/05/15 06:40:52;;;;;;;26.45;14.18;;;11.50;99.90;;;10.91;82.92;100344.59;4890962;28;20045;-80
2021/05/15 06:43:15;;;;;;;28.88;14.15;;;11.60;99.90;;;11.10;82.29;100344.47;4884312;28;20053;-81
2021/05/15 06:45:38;;;;;;;32.65;14.60;;;11.70;99.90;;;11.29;82.51;100339.88;4886035;28;20127;-80
2021/05/15 06:48:00;;;;;;;27.13;14.00;;;11.70;99.90;;;11.22;82.85;100351.66;4885066;28;20064;-80
2021/05/15 06:50:24;;;;;;;28.10;15.00;;;11.60;99.90;;;10.96;83.49;100341.72;4893899;28;20053;-79
2021/05/15 06:52:47;;;;;;;28.40;15.07;;;11.50;99.90;;;11.06;83.09;100348.19;4893995;28;20463;-79
2021/05/15 06:55:11;;;;;;;32.10;15.05;;;11.80;99.90;;;11.23;82.74;100348.13;4891007;28;20454;-79
2021/05/15 06:57:36;;;;;;;30.48;14.73;;;;;;;11.53;82.84;100334.13;4887579;28;20052;-80
2021/05/15 06:59:59;;;;;;;28.60;15.40;;;;;;;11.83;80.77;100334.16;4894594;28;20098;-79
2021/05/15 07:02:22;;;;;;;28.60;15.13;;;12.70;99.90;;;12.29;81.45;100346.50;4896734;28;20462;-80
2021/05/15 07:04:45;;;;;;;30.60;14.93;;;12.80;99.90;;;12.07;79.25;100338.97;4893886;28;20045;-80
2021/05/15 07:07:08;;;;;;;26.23;14.10;;;12.60;99.90;;;11.90;81.50;100340.81;4897204;28;20072;-81
2021/05/15 07:09:31;;;;;;;30.52;15.07;;;12.40;99.90;;;11.55;81.08;100340.16;4884766;28;20496;-80
2021/05/15 07:11:54;;;;;;;31.98;15.68;;;12.00;99.90;;;11.36;82.27;100350.03;4897546;28;20053;-80
2021/05/15 07:14:18;;;;;;;28.95;16.13;;;12.30;99.90;;;11.82;84.08;100342.19;4890412;28;20045;-81
2021/05/15 07:16:40;;;;;;;40.58;17.77;;;12.20;99.90;;;11.56;82.22;100344.50;4891537;28;20050;-79
2021/05/15 07:19:04;;;;;;;36.75;16.55;;;12.10;99.90;;;11.57;82.51;100354.09;4901529;28;20045;-80
2021/05/15 07:21:27;;;;;;;31.85;16.27;;;12.50;99.90;;;12.14;80.76;100344.72;4890154;28;20049;-80
2021/05/15 07:23:50;;;;;;;33.92;16.23;;;12.90;99.90;;;12.60;82.11;100347.28;4887150;28;20503;-80
2021/05/15 07:26:13;;;;;;;34.53;16.52;;;13.80;99.90;;;13.76;76.03;100333.75;4891626;28;20051;-81
2021/05/15 07:28:36;;;;;;;33.13;15.80;;;14.40;99.90;;;14.24;74.64;100335.88;4898139;28;20052;-79
2021/05/15 07:30:59;;;;;;;30.10;14.32;;;14.80;99.90;;;14.13;70.46;100334.78;4900966;28;20070;-80
2021/05/15 07:33:22;;;;;;;26.00;13.98;;;14.50;99.90;;;13.79;74.82;100341.47;4887863;28;20049;-80
2021/05/15 07:35:45;;;;;;;31.13;15.25;;;14.40;99.90;;;13.80;75.72;100332.63;4887648;28;20381;-81
2021/05/15 07:38:08;;;;;;;28.17;15.15;;;14.50;99.90;;;14.15;75.72;100332.88;4890730;28;20049;-78
2021/05/15 07:40:31;;;;;;;27.50;14.38;;;14.60;99.90;;;13.87;75.26;100341.84;4898503;28;20037;-81
2021/05/15 07:42:58;;;;;;;28.77;14.70;;;13.90;99.90;;;13.07;73.81;100343.47;4891471;28;20041;-81
2021/05/15 07:45:22;;;;;;;31.20;14.63;;;13.00;99.90;;;12.47;78.25;100349.81;4887052;28;20041;-80
2021/05/15 07:47:46;;;;;;;33.72;15.05;;;12.60;99.90;;;12.09;79.98;100345.88;4888312;28;20472;-81
2021/05/15 07:50:10;;;;;;;30.58;14.73;;;12.60;99.90;;;12.04;80.35;100341.81;4888281;28;20037;-79
2021/05/15 07:52:33;;;;;;;28.73;14.27;;;12.70;99.90;;;12.17;81.57;100341.94;4891304;28;20095;-80
2021/05/15 07:54:56;;;;;;;26.50;14.23;;;12.50;99.90;;;11.87;80.67;100342.75;4888064;28;20057;-79
2021/05/15 07:57:19;;;;;;;29.80;15.15;;;12.50;99.90;;;11.87;81.09;100345.38;4890350;28;20053;-80
2021/05/15 07:59:42;;;;;;;28.58;14.55;;;12.60;99.90;;;12.04;80.83;100345.28;4887415;28;20053;-79
2021/05/15 08:02:05;;;;;;;28.77;14.30;;;12.70;99.90;;;12.26;80.93;100339.56;4893766;28;20071;-81
2021/05/15 08:04:28;;;;;;;30.05;14.85;;;13.00;99.90;;;12.59;79.83;100350.84;4894732;28;20053;-81
2021/05/15 08:06:51;;;;;;;29.10;14.23;;;12.60;99.90;;;12.00;81.60;100343.75;4889761;28;20057;-81
2021/05/15 08:09:14;;;;;;;28.60;14.68;;;12.70;99.90;;;12.28;81.94;100350.91;4896058;28;20496;-79
2021/05/15 08:11:37;;;;;;;26.70;14.10;;;12.80;99.90;;;12.23;80.37;100350.31;4884362;28;20052;-81
2021/05/15 08:14:00;;;;;;;28.35;14.45;;;13.20;99.90;;;12.80;79.96;100346.88;4890627;28;20727;-81
2021/05/15 08:16:23;;;;;;;33.70;13.57;;;13.30;99.90;;;12.77;77.68;100341.78;4896156;28;20056;-81
2021/05/15 08:18:46;;;;;;;28.00;12.75;;;13.40;99.90;;;13.06;78.01;100341.75;4903329;28;20110;-79
2021/05/15 08:21:11;;;;;;;24.77;12.68;;;13.60;99.90;;;13.42;75.63;100348.34;4899650;28;20045;-82
2021/05/15 08:23:36;;;;;;;25.92;12.93;;;13.90;99.90;;;13.82;75.40;100343.06;4895958;28;20423;-81
2021/05/15 08:25:59;;;;;;;23.00;12.37;;;14.20;99.90;;;13.87;75.48;100341.00;4896840;28;20061;-80
2021/05/15 08:28:24;;;;;;;24.27;13.52;;;13.80;99.90;;;13.68;77.05;100346.63;4908340;28;20403;-78
2021/05/15 08:30:47;;;;;;;;;;;14.40;99.90;;;14.41;76.18;100343.50;4904140;28;20123;-77
2021/05/15 08:33:11;;;;;;;24.25;13.13;;;14.70;99.90;;;14.40;70.88;100335.66;4891316;28;19939;-81
2021/05/15 08:35:34;;;;;;;28.83;12.57;;;14.10;99.90;;;13.61;73.26;100343.56;4890971;28;20046;-79
2021/05/15 08:37:58;;;;;;;27.48;12.75;;;13.80;99.90;;;13.53;73.87;100337.91;4893506;28;20052;-81
2021/05/15 08:40:24;;;;;;;25.30;12.80;;;13.90;99.90;;;13.66;77.05;100345.88;4888874;28;20041;-83
2021/05/15 08:42:48;;;;;;;26.95;13.00;;;14.10;99.90;;;13.58;73.71;100343.72;4894915;28;20058;-81
2021/05/15 08:45:14;;;;;;;25.00;13.10;;;14.00;99.90;;;13.67;73.54;100348.44;4887196;28;20045;-79
2021/05/15 08:47:40;;;;;;;28.00;12.85;;;14.00;99.90;;;13.69;74.25;100340.38;4884038;28;20546;-81
2021/05/15 08:50:08;;;;;;;25.65;11.65;;;14.00;99.90;;;13.62;73.39;100347.88;4890343;28;20059;-80
2021/05/15 08:52:32;;;;;;;29.70;12.20;;;14.00;99.90;;;13.86;73.51;100344.56;4897527;28;20088;-81
2021/05/15 08:54:56;;;;;;;19.77;11.27;;;14.10;99.90;;;14.08;72.83;100344.84;4886271;28;20124;-81
2021/05/15 08:57:19;;;;;;;30.17;12.25;;;14.50;99.90;;;14.31;72.17;100350.38;4891902;28;20045;-80
2021/05/15 08:59:43;;;;;;;21.13;11.45;;;;;;;14.81;71.32;100343.41;4892928;28;20048;-81
2021/05/15 09:02:39;;;;;;;21.48;11.82;;;15.20;99.90;;;15.49;70.29;100338.56;4878314;28;20106;-81
2021/05/15 09:05:04;;;;;;;19.88;11.30;;;15.90;99.90;;;16.32;66.73;100340.34;4860066;28;20053;-81
2021/05/15 09:08:12;;;;;;;16.73;9.73;;;16.60;99.90;;;16.55;63.99;100339.41;4858210;28;20044;-81
2021/05/15 09:10:41;;;;;;;21.25;10.95;;;16.00;99.90;;;16.01;66.26;100342.69;4861838;28;20057;-80
2021/05/15 09:13:48;;;;;;;25.33;11.40;;;16.50;99.90;;;16.99;68.39;100336.91;4861355;28;20131;-80
2021/05/15 09:16:28;;;;;;;24.08;11.93;;;17.70;99.90;;;17.01;69.04;100338.47;4884909;28;20048;-82
2021/05/15 09:19:26;;;;;;;22.23;10.40;;;17.90;99.90;;;17.89;59.28;100335.84;4866543;28;20168;-82
2021/05/15 09:22:10;;;;;;;17.48;9.75;;;17.90;99.90;;;18.28;64.32;100330.81;4879666;28;20059;-82
2021/05/15 09:25:00;;;;;;;17.52;9.80;;;18.40;99.90;;;18.20;60.33;100326.94;4883227;28;20403;-80
2021/05/15 09:27:35;;;;;;;15.45;8.93;;;17.80;99.90;;;18.10;60.67;100331.41;4871859;28;20048;-81
2021/05/15 09:29:59;;;;;;;17.38;9.65;;;17.50;99.90;;;17.91;58.02;100331.25;4891815;28;20387;-81
2021/05/15 09:32:43;;;;;;;20.85;10.23;;;17.80;99.90;;;18.18;60.69;100334.22;4856942;28;20053;-81
2021/05/15 09:36:00;;;;;;;16.05;9.65;;;17.60;99.90;;;18.00;63.02;100325.97;4858749;28;20112;-80
2021/05/15 09:38:23;;;;;;;98.40;16.65;;;18.20;99.90;;;18.27;59.27;100323.78;4864809;28;20074;-81
2021/05/15 09:41:10;;;;;;;19.55;9.98;;;17.90;99.90;;;17.70;59.56;100337.34;4863359;28;20041;-80
2021/05/15 09:43:54;;;;;;;17.70;9.00;;;17.50;99.90;;;17.76;58.80;100320.88;4868851;28;20049;-80
2021/05/15 09:46:59;;;;;;;13.35;8.35;;;17.40;99.90;;;17.53;58.24;100317.44;4872888;28;20061;-80
2021/05/15 09:49:59;;;;;;;15.50;7.95;;;18.00;99.90;;;17.94;57.99;100325.66;4867258;28;20133;-81
2021/05/15 09:53:08;;;;;;;14.40;8.50;;;18.20;99.90;;;18.45;59.10;100317.72;4865699;28;20047;-83
2021/05/15 09:55:36;;;;;;;14.80;7.85;;;18.80;99.90;;;18.83;55.74;100312.72;4863475;28;20473;-81
2021/05/15 09:58:11;;;;;;;17.77;8.82;;;18.40;99.90;;;18.84;57.50;100315.25;4860120;28;20126;-81
2021/05/15 10:09:14;;;;;;;18.55;9.18;;;18.60;99.90;;;17.88;60.02;100315.50;4856362;28;20485;-82
2021/05/15 10:12:44;;;;;;;12.65;7.50;;;18.90;99.90;;;18.97;59.71;100315.00;4863866;28;20054;-82